Galena, Nevada Weather observations

Data are for 10 minute period ending at time listed.
 Day   Time    Ave.   Ave.  Ave.  Vector   Max.   Total    Solar   
  of    of     Air    Rel.  Wind   Wind    Wind  Precip.   Rad.    
Year   Day     Temp.  Hum.  Speed  Dir.    Gust                    
2017   (PST)    F      %     mph   deg.    mph     in.     W/m2    
------------------------------------------------------------------- 
  35   22:00   37.0    68   11.0   155     24.0   22.05       0  
  35   23:00   37.0    69   12.0   149     19.0   22.05       0  
  36    0:00   37.0    64    8.0   154     21.0   22.05       0  
  36    1:00   36.0    59    5.0   225     16.0   22.05       0  
  36    2:00   36.0    60    4.0   257     10.0   22.05       0  
  36    3:00   36.0    60    2.0   266     11.0   22.05       0  
  36    4:00   34.0    61    1.0   235      8.0   22.05       0  
  36    5:00   36.0    58    3.0   161     18.0   22.05       0  
  36    6:00   36.0    59    4.0   319     10.0   22.05       0  
  36    7:00   35.0    58    3.0   348      6.0   22.05       0  
  36    8:00   37.0    54    4.0    11      8.0   22.05      39  
  36    9:00   44.0    42   14.0   156     27.0   22.05     224  
  36   10:00   46.0    38   15.0   151     28.0   22.05     372  
  36   11:00   48.0    35   20.0   186     32.0   22.05     525  
  36   12:00   48.0    40   19.0   203     41.0   22.05     592  
  36   13:00   51.0    34   22.0   194     39.0   22.05     648  
  36   14:00   49.0    38   21.0   194     42.0   22.05     554  
  36   15:00   50.0    37   18.0   204     36.0   22.05     467  
  36   16:00   48.0    34   22.0   201     37.0   22.05     395  
  36   17:00   44.0    35   21.0   199     43.0   22.05     142  
  36   18:00   42.0    36   24.0   196     43.0   22.05      16  
  36   19:00   43.0    33   36.0   232     56.0   22.05       0  
  36   20:00   34.0    74   32.0   222     67.0   22.05       0  
  36   21:00   33.0    88   21.0   202     42.0   22.05       0  

Return to Galena, Nevada graphs page.


Western Regional Climate Center,wrcc@dri.edu